Gesamt
New Town Muni Airport (New Town, ND) 05D Wetter
There is no TAF data available at 05D or any nearby airports.
There is no METAR data available at 05D. Showing METAR data for 08D (23 mi N).
Aktueller METAR-Verlauf 08D (keine Daten für 05D)
| Date | Time (CDT) | Flight Rules | Wind Dir. | Speed | Type | Height AGL (ft) | Visibility | Temp (°C) | Temp (°F) | Dew Point (°C) | Dew Point (°F) | Rel. Humid. | Pressure | Density Altitude | Remarks |
|---|---|---|---|---|---|---|---|---|---|---|---|---|---|---|---|
| 04-Sep | 14:15 | VFR | 120° | 16 kt | 10 miles | 27° | 80° | 15° | 59° | 48% | 29.91 in Hg | 4.174 ft | Wind gusting to 22 KT | ||
| 04-Sep | 13:55 | VFR | 130° | 15 kt | 10 miles | 27° | 80° | 16° | 60° | 51% | 29.92 in Hg | 4.164 ft | Wind gusting to 21 KT | ||
| 04-Sep | 13:35 | VFR | 120° | 15 kt | 10 miles | 27° | 80° | 17° | 62° | 54% | 29.93 in Hg | 4.154 ft | Wind gusting to 21 KT | ||
| 04-Sep | 13:15 | VFR | 120° | 15 kt | 10 miles | 26° | 78° | 17° | 62° | 58% | 29.93 in Hg | 4.034 ft | Wind gusting to 20 KT | ||
| 04-Sep | 12:55 | VFR | 120° | 12 kt | 10 miles | 25° | 77° | 18° | 64° | 65% | 29.94 in Hg | 3.904 ft | Wind gusting to 18 KT | ||
| 04-Sep | 12:35 | VFR | 100° | 11 kt | 10 miles | 24° | 75° | 18° | 64° | 69% | 29.94 in Hg | 3.784 ft | Wind gusting to 17 KT | ||
| 04-Sep | 12:15 | VFR | 90° | 10 kt | 10 miles | 23° | 73° | 19° | 66° | 78% | 29.94 in Hg | 3.664 ft | Wind gusting to 15 KT | ||
| 04-Sep | 11:55 | VFR | 110° | 12 kt | 10 miles | 21° | 69° | 21° | 69° | 100% | 29.94 in Hg | 3.424 ft | |||
| 04-Sep | 11:35 | VFR | 120° | 11 kt | 10 miles | 18° | 64° | 18° | 64° | 100% | 29.95 in Hg | 3.054 ft | |||
| 04-Sep | 10:35 | VFR | 120° | 8 kt | 10 miles |
17° | 62° | 17° | 62° | 100% | 29.96 in Hg | 2.924 ft | |||
| 04-Sep | 10:15 | VFR | 120° | 8 kt | 5 miles |
17° | 62° | 17° | 62° | 100% | 29.96 in Hg | 2.924 ft | Mist | ||
| 04-Sep | 09:55 | IFR | 130° | 9 kt | 1 miles |
16° | 60° | 16° | 60° | 100% | 29.96 in Hg | 2.804 ft | Mist | ||
| 04-Sep | 09:35 | LIFR | 130° | 7 kt | 0.50 miles |
16° | 60° | 16° | 60° | 100% | 29.96 in Hg | 2.804 ft | Fog | ||
| 04-Sep | 09:15 | BCAT1 | 120° | 9 kt | 0.25 miles | 16° | 60° | 16° | 60° | 100% | 29.96 in Hg | 2.804 ft | Fog | ||
| 04-Sep | 08:55 | BCAT1 | 140° | 7 kt | 0.25 miles | 16° | 60° | 16° | 60° | 100% | 29.96 in Hg | 2.804 ft | Fog | ||
| 04-Sep | 08:35 | BCAT1 | 140° | 9 kt | 0.25 miles | 16° | 60° | 16° | 60° | 100% | 29.96 in Hg | 2.804 ft | Fog | ||
| 04-Sep | 08:15 | BCAT1 | 120° | 7 kt | 0.25 miles | 15° | 59° | 15° | 59° | 100% | 29.95 in Hg | 2.694 ft | Fog | ||
| 04-Sep | 07:55 | BCAT1 | 120° | 9 kt | 0.25 miles | 15° | 59° | 15° | 59° | 100% | 29.95 in Hg | 2.694 ft | Fog | ||
| 04-Sep | 07:35 | BCAT1 | 110° | 7 kt | 0.25 miles | 15° | 59° | 15° | 59° | 100% | 29.95 in Hg | 2.694 ft | Fog | ||
| 04-Sep | 07:15 | BCAT1 | 100° | 5 kt | 0.25 miles | 15° | 59° | 15° | 59° | 100% | 29.94 in Hg | 2.704 ft | Fog | ||
| 04-Sep | 06:55 | BCAT1 | 100° | 5 kt | 0.25 miles | 14° | 57° | 14° | 57° | 100% | 29.94 in Hg | 2.584 ft | Fog | ||
| 04-Sep | 06:35 | BCAT1 | 120° | 6 kt | 0.25 miles | 14° | 57° | 14° | 57° | 100% | 29.94 in Hg | 2.584 ft | Fog | ||
| 04-Sep | 06:15 | BCAT1 | 150° | 5 kt | 0.25 miles | 15° | 59° | 15° | 59° | 100% | 29.94 in Hg | 2.704 ft | Fog | ||
| 04-Sep | 05:55 | BCAT1 | 130° | 4 kt | 0.25 miles | 15° | 59° | 15° | 59° | 100% | 29.93 in Hg | 2.714 ft | Fog |
Anmelden
| Ihr Browser wird nicht unterstützt. aktualisieren Sie Ihren Browser |
